createdAt,value
2018-09-19T00:01:15.765Z,6.4
2018-09-19T00:07:10.738Z,6.54
2018-09-19T00:13:05.768Z,6.22
2018-09-19T00:19:00.794Z,6.77
2018-09-19T00:24:55.726Z,6.72
2018-09-19T00:30:50.770Z,7.79
2018-09-19T00:36:45.792Z,7.27
2018-09-19T00:42:40.801Z,6.59
2018-09-19T00:48:35.803Z,6.73
2018-09-19T00:54:30.756Z,6.1
2018-09-19T01:00:25.754Z,7.44
2018-09-19T01:06:20.799Z,7.69
2018-09-19T01:12:15.768Z,7.31
2018-09-19T01:18:10.784Z,7.88
2018-09-19T01:24:05.811Z,8.05
2018-09-19T01:30:00.807Z,8.71
2018-09-19T01:35:55.787Z,7.98
2018-09-19T01:41:50.795Z,9.53
2018-09-19T01:47:45.805Z,8.9
2018-09-19T01:53:40.853Z,8.63
2018-09-19T01:59:35.810Z,8.96
2018-09-19T02:05:30.840Z,8.04
2018-09-19T02:11:25.812Z,8.64
2018-09-19T02:17:20.826Z,7.6
2018-09-19T02:23:15.815Z,8.48
2018-09-19T02:29:10.811Z,9.06
2018-09-19T02:35:05.826Z,8.84
2018-09-19T02:41:00.821Z,8.71
2018-09-19T02:46:55.860Z,8.22
2018-09-19T02:52:50.828Z,8.25
2018-09-19T02:58:45.870Z,8.18
2018-09-19T03:10:35.921Z,9.29
2018-09-19T03:16:30.876Z,8.78
2018-09-19T03:22:25.854Z,8.38
2018-09-19T03:28:20.897Z,7.69
2018-09-19T03:34:15.860Z,7.65
2018-09-19T03:40:10.893Z,7.42
2018-09-19T03:46:05.886Z,7.53
2018-09-19T03:52:00.910Z,6.91
2018-09-19T03:57:55.923Z,7.98
2018-09-19T04:03:50.946Z,8.53
2018-09-19T04:09:45.885Z,7.59
2018-09-19T04:15:40.937Z,7.76
2018-09-19T04:21:35.943Z,8.94
2018-09-19T04:27:30.909Z,8.57
2018-09-19T04:33:25.990Z,8.74
2018-09-19T04:39:20.964Z,7.45
2018-09-19T04:45:15.936Z,7.66
2018-09-19T04:51:10.896Z,9.05
2018-09-19T04:57:05.956Z,7.69
2018-09-19T05:03:00.930Z,8.07
2018-09-19T05:08:55.957Z,7.57
2018-09-19T05:14:50.938Z,7.77
2018-09-19T05:20:45.979Z,8.14
2018-09-19T05:26:40.918Z,7.24
2018-09-19T05:32:35.980Z,21.49
2018-09-19T05:38:30.945Z,70.12
2018-09-19T05:44:25.952Z,52.21
2018-09-19T05:50:20.942Z,31.26
2018-09-19T05:56:15.948Z,30.14
2018-09-19T06:02:10.939Z,47.28
2018-09-19T06:08:05.963Z,21.63
2018-09-19T06:14:00.959Z,7.92
2018-09-19T06:19:56.011Z,8.22
2018-09-19T06:25:50.967Z,7.87
2018-09-19T06:31:45.965Z,7.61
2018-09-19T06:37:40.967Z,39.45
2018-09-19T06:43:35.991Z,24.45
2018-09-19T06:49:31.039Z,21.7
2018-09-19T06:55:25.982Z,14.52
2018-09-19T07:01:20.984Z,10.31
2018-09-19T07:07:16.022Z,7.02
2018-09-19T07:13:11.044Z,7.56
2018-09-19T07:19:06.021Z,8.39
2018-09-19T07:25:01.108Z,7.34
2018-09-19T07:30:56.117Z,7.18
2018-09-19T07:36:51.029Z,7.4
2018-09-19T07:42:46.022Z,7.04
2018-09-19T07:48:41.012Z,8
2018-09-19T07:54:36.058Z,7.59
2018-09-19T08:00:31.177Z,7.5
2018-09-19T08:06:26.025Z,6.5
2018-09-19T08:12:21.051Z,6.82
2018-09-19T08:18:16.066Z,6.95
2018-09-19T08:24:11.056Z,7.65
2018-09-19T08:30:06.042Z,7.9
2018-09-19T08:36:01.064Z,7.73
2018-09-19T08:41:56.054Z,7.16
2018-09-19T08:47:51.074Z,6.96
2018-09-19T08:53:46.173Z,6.71
2018-09-19T08:59:41.097Z,6.29
2018-09-19T09:05:36.088Z,6.12
2018-09-19T09:11:31.076Z,6.1
2018-09-19T09:17:26.077Z,5.57
2018-09-19T09:23:21.093Z,6.4
2018-09-19T09:29:16.072Z,6.12
2018-09-19T09:35:11.076Z,5.3
2018-09-19T09:41:06.101Z,5.6
2018-09-19T09:47:01.106Z,5.21
2018-09-19T09:52:56.113Z,5.68
2018-09-19T09:58:51.106Z,5.33
2018-09-19T10:04:46.124Z,5.02
2018-09-19T10:10:41.134Z,4.86
2018-09-19T10:16:36.110Z,4.6
2018-09-19T10:22:31.118Z,4.4
2018-09-19T10:28:26.109Z,4.81
2018-09-19T10:34:21.195Z,4.96
2018-09-19T10:40:16.187Z,5.03
2018-09-19T10:46:11.153Z,5.26
2018-09-19T10:52:06.182Z,4.5
2018-09-19T10:58:01.127Z,5.03
2018-09-19T11:03:56.155Z,5.6
2018-09-19T11:09:51.225Z,5.33
2018-09-19T11:15:46.160Z,6.29
2018-09-19T11:21:41.152Z,5.86
2018-09-19T11:27:36.224Z,5.16
2018-09-19T11:33:31.190Z,5.22
2018-09-19T11:39:26.190Z,4.79
2018-09-19T11:45:21.171Z,4.62
2018-09-19T11:51:16.177Z,4.59
2018-09-19T11:57:11.233Z,5.12
2018-09-19T12:03:06.183Z,4.99
2018-09-19T12:09:01.167Z,4.23
2018-09-19T12:14:56.181Z,4.92
2018-09-19T12:20:51.214Z,4.03
2018-09-19T12:26:46.187Z,3.41
2018-09-19T12:32:41.232Z,4.02
2018-09-19T12:38:36.233Z,3.27
2018-09-19T12:44:31.232Z,3.17
2018-09-19T12:50:26.250Z,3.12
2018-09-19T12:56:21.237Z,3.35
2018-09-19T13:02:16.211Z,3.49
2018-09-19T13:08:11.222Z,3.18
2018-09-19T13:14:06.245Z,3.88
2018-09-19T13:20:01.225Z,3.51
2018-09-19T13:25:56.222Z,3.11
2018-09-19T13:31:51.282Z,3.76
2018-09-19T13:37:46.255Z,3.53
2018-09-19T13:43:41.224Z,3.81
2018-09-19T13:49:36.261Z,4
2018-09-19T13:55:31.269Z,3.55
2018-09-19T14:01:26.289Z,3.97
2018-09-19T14:07:21.269Z,3.23
2018-09-19T14:13:16.236Z,3.22
2018-09-19T14:19:11.293Z,3.29
2018-09-19T14:25:06.259Z,3.43
2018-09-19T14:31:01.256Z,3.3
2018-09-19T14:36:56.316Z,3.11
2018-09-19T14:42:51.276Z,2.73
2018-09-19T14:48:46.424Z,2.83
2018-09-19T14:54:41.295Z,3.25
2018-09-19T15:00:36.316Z,3.21
2018-09-19T15:06:31.343Z,3.57
2018-09-19T15:12:26.299Z,3.97
2018-09-19T15:18:21.346Z,3.58
2018-09-19T15:24:16.329Z,3.68
2018-09-19T15:30:11.321Z,4.07
2018-09-19T15:36:06.379Z,3.77
2018-09-19T15:42:01.342Z,4.22
2018-09-19T15:47:56.359Z,4.2
2018-09-19T15:53:51.388Z,3.71
2018-09-19T15:59:46.342Z,4.33
2018-09-19T16:05:41.411Z,4.17
2018-09-19T16:11:36.342Z,4.19
2018-09-19T16:17:31.409Z,4.56
2018-09-19T16:23:26.362Z,4.35
2018-09-19T16:29:21.343Z,4.86
2018-09-19T16:35:16.368Z,4.62
2018-09-19T16:41:11.354Z,4.58
2018-09-19T16:47:06.388Z,4.7
2018-09-19T16:53:01.414Z,6.31
2018-09-19T16:58:56.374Z,6.43
2018-09-19T17:04:51.405Z,4.74
2018-09-19T17:10:46.384Z,5.68
2018-09-19T17:58:06.447Z,5.15
2018-09-19T17:58:06.465Z,5.92
2018-09-19T17:58:06.481Z,5.92
2018-09-19T17:58:06.505Z,5.92
2018-09-19T17:58:06.525Z,5.92
2018-09-19T17:58:06.565Z,5.92
2018-09-19T17:58:06.597Z,5.92
2018-09-19T17:58:06.628Z,5.92
2018-09-19T18:04:01.427Z,5.63
2018-09-19T18:09:56.443Z,5.91
2018-09-19T18:15:51.411Z,6.63
2018-09-19T18:21:46.424Z,6.34
2018-09-19T18:27:41.463Z,7.41
2018-09-19T18:33:39.012Z,7.13
2018-09-19T18:39:34.392Z,7.12
2018-09-19T18:45:29.808Z,6.82
2018-09-19T18:51:25.531Z,7.6
2018-09-19T18:57:16.472Z,6.45
2018-09-19T19:03:11.448Z,6.51
2018-09-19T19:09:07.602Z,6.37
2018-09-19T19:15:01.458Z,6.82
2018-09-19T19:20:56.468Z,7.11
2018-09-19T19:26:52.065Z,6.93
2018-09-19T19:32:46.503Z,7.73
2018-09-19T19:38:41.478Z,9.51
2018-09-19T19:44:36.494Z,7.65
2018-09-19T19:50:31.488Z,8.08
2018-09-19T19:56:26.475Z,8.54
2018-09-19T20:02:21.485Z,8.72
2018-09-19T20:08:16.532Z,9.13
2018-09-19T20:14:11.616Z,7.89
2018-09-19T20:20:06.509Z,9.04
2018-09-19T20:26:01.509Z,9.71
2018-09-19T20:31:56.510Z,10.43
2018-09-19T20:37:51.787Z,9.79
2018-09-19T20:43:46.526Z,9.45
2018-09-19T20:49:44.439Z,9.08
2018-09-19T20:55:36.522Z,8.31
2018-09-19T21:01:35.692Z,10.32
2018-09-19T21:07:26.525Z,9.92
2018-09-19T21:13:25.569Z,10.06
2018-09-19T21:19:16.563Z,9.56
2018-09-19T21:25:11.554Z,9.75
2018-09-19T21:31:06.980Z,13.78
2018-09-19T21:37:01.536Z,12.84
2018-09-19T21:42:56.584Z,10.76
2018-09-19T21:48:51.568Z,11.69
2018-09-19T21:54:46.550Z,11.07
2018-09-19T22:00:41.565Z,10.33
2018-09-19T22:06:36.574Z,10.25
2018-09-19T22:12:31.570Z,10.42
2018-09-19T22:18:27.475Z,11.74
2018-09-19T22:24:23.026Z,11.91
2018-09-19T22:30:20.442Z,11.1
2018-09-19T22:36:15.000Z,11.02
2018-09-19T22:42:06.616Z,13.44
2018-09-19T22:48:01.611Z,12.86
2018-09-19T22:53:56.589Z,11.57
2018-09-19T22:59:51.620Z,11.99
2018-09-19T23:05:50.663Z,11.83
2018-09-19T23:11:41.638Z,11.58
2018-09-19T23:17:40.266Z,12.59
2018-09-19T23:23:35.010Z,11.26
2018-09-19T23:29:29.699Z,11.06
2018-09-19T23:35:25.684Z,11.83
2018-09-19T23:41:19.429Z,10.4
2018-09-19T23:47:14.212Z,11.18
2018-09-19T23:53:08.304Z,11.88
2018-09-19T23:59:04.815Z,14.97
